KRNC/RNC METAR and TAF weather

Enter ICAO airport designator
Station Type Date Time Source
KRNC METAR 2021/09/27 08:15 UTC NOAA

KRNC 270815Z AUTO 00000KT 1SM BR CLR 12/12 A3012 RMK A01


Station Type Date Time Source
KRNC Decoded METAR 2021/09/27 08:15 UTC NOAA

Station name not available
Sep 27, 2021 - 04:15 AM EDT / 2021.09.27 0815 UTC
Wind: Calm:0
Visibility: 1 mile(s):0
Sky conditions: clear
Weather: mist
Temperature: 53 F (12 C)
Dew Point: 53 F (12 C)
Relative Humidity: 100%
Pressure (altimeter): 30.12 in. Hg (1019 hPa)
ob: KRNC 270815Z AUTO 00000KT 1SM BR CLR 12/12 A3012 RMK A01
cycle: 8

Station Type Date Time Source
KRNC TAF 2009/08/31 19:45 UTC NOAA

METAR KRNC 311945Z AUTO 35008KT 10SM CLR 25/12 A3011
RMK AO1 T02500116 $

Example: see airport list